CheckWX is a tool to help pilots better visualize weather data.  It is not intended as a substitute for an official pre-flight weather briefing.

14:32:02 UTC

KBMQ METAR
Burnet Municipal Kate Craddock Field Airport
Burnet, Texas, USA
Current

39 mins ago

KBMQ 221353Z AUTO 16006KT 10SM OVC017 19/16 A3004 RMK AO2 SLP159 T01940161
Observed
Apr-22 @ 13:53 UTC
Wind
  • 160° at 6 KTS
Visibility
10 SM
Flight Rules
MVFR
Cloud Levels
  • Overcast at 1,700' AGL
Temperature
19°C / 66°F
Dewpoint
16°C / 61°F
Humidity
83%
Altimeter
30.04" Hg
Pressure
1017.32 hPa
Previous

2 hours ago

KBMQ 221253Z AUTO 16007KT 10SM BKN017 18/16 A3003 RMK AO2 SLP155 T01830161
Observed
Apr-22 @ 12:53 UTC
Wind
  • 160° at 7 KTS
Visibility
10 SM
Flight Rules
MVFR
Cloud Levels
  • Broken at 1,700' AGL
Temperature
18°C / 64°F
Dewpoint
16°C / 61°F
Humidity
88%
Altimeter
30.03" Hg
Pressure
1016.92 hPa
Previous

3 hours ago

KBMQ 221153Z AUTO 17006KT 10SM OVC017 18/16 A3001 RMK AO2 SLP145 T01830161 10200 20183 53005
Observed
Apr-22 @ 11:53 UTC
Wind
  • 170° at 6 KTS
Visibility
10 SM
Flight Rules
MVFR
Cloud Levels
  • Overcast at 1,700' AGL
Temperature
18°C / 64°F
Dewpoint
16°C / 61°F
Humidity
88%
Altimeter
30.01" Hg
Pressure
1016.22 hPa